sensor_id;sensor_type;location;lat;lon;timestamp;P1;durP1;ratioP1;P2;durP2;ratioP2
29776;SDS011;16677;52.224;7.484;2023-05-07T01:00:29;20.37;;;18.13;;
29776;SDS011;16677;52.224;7.484;2023-05-07T01:02:56;21.33;;;19.03;;
29776;SDS011;16677;52.224;7.484;2023-05-07T01:05:24;23.10;;;19.80;;
29776;SDS011;16677;52.224;7.484;2023-05-07T01:07:54;22.47;;;20.27;;
29776;SDS011;16677;52.224;7.484;2023-05-07T01:10:23;22.00;;;19.70;;
29776;SDS011;16677;52.224;7.484;2023-05-07T01:12:51;22.83;;;20.43;;
29776;SDS011;16677;52.224;7.484;2023-05-07T01:15:20;22.17;;;20.03;;
29776;SDS011;16677;52.224;7.484;2023-05-07T01:17:47;23.07;;;20.60;;
29776;SDS011;16677;52.224;7.484;2023-05-07T01:20:14;23.20;;;20.87;;
29776;SDS011;16677;52.224;7.484;2023-05-07T01:22:42;23.47;;;20.87;;
29776;SDS011;16677;52.224;7.484;2023-05-07T01:25:10;23.67;;;21.03;;
29776;SDS011;16677;52.224;7.484;2023-05-07T01:27:37;22.53;;;20.23;;
29776;SDS011;16677;52.224;7.484;2023-05-07T01:30:04;22.70;;;20.23;;
29776;SDS011;16677;52.224;7.484;2023-05-07T01:32:33;23.73;;;21.10;;
29776;SDS011;16677;52.224;7.484;2023-05-07T01:35:07;24.13;;;20.93;;
29776;SDS011;16677;52.224;7.484;2023-05-07T01:37:39;24.53;;;21.93;;
29776;SDS011;16677;52.224;7.484;2023-05-07T01:40:07;24.10;;;21.70;;
29776;SDS011;16677;52.224;7.484;2023-05-07T01:42:36;23.97;;;21.13;;
29776;SDS011;16677;52.224;7.484;2023-05-07T01:45:03;23.80;;;21.33;;
29776;SDS011;16677;52.224;7.484;2023-05-07T01:47:30;25.63;;;22.93;;
29776;SDS011;16677;52.224;7.484;2023-05-07T01:49:58;23.00;;;20.70;;
29776;SDS011;16677;52.224;7.484;2023-05-07T01:52:27;25.07;;;22.47;;
29776;SDS011;16677;52.224;7.484;2023-05-07T01:54:54;24.43;;;21.83;;
29776;SDS011;16677;52.224;7.484;2023-05-07T01:57:21;24.47;;;21.97;;
29776;SDS011;16677;52.224;7.484;2023-05-07T01:59:48;22.73;;;20.20;;
29776;SDS011;16677;52.224;7.484;2023-05-07T02:02:15;23.43;;;21.03;;
29776;SDS011;16677;52.224;7.484;2023-05-07T02:04:42;24.37;;;21.67;;
29776;SDS011;16677;52.224;7.484;2023-05-07T02:07:10;23.37;;;20.77;;
29776;SDS011;16677;52.224;7.484;2023-05-07T02:09:37;23.90;;;21.20;;
29776;SDS011;16677;52.224;7.484;2023-05-07T02:12:05;24.57;;;22.17;;
29776;SDS011;16677;52.224;7.484;2023-05-07T02:14:32;24.63;;;22.13;;
29776;SDS011;16677;52.224;7.484;2023-05-07T02:16:59;24.30;;;21.87;;
29776;SDS011;16677;52.224;7.484;2023-05-07T02:19:26;24.67;;;22.17;;
29776;SDS011;16677;52.224;7.484;2023-05-07T02:29:14;29.37;;;26.47;;
29776;SDS011;16677;52.224;7.484;2023-05-07T02:31:41;29.37;;;26.10;;
29776;SDS011;16677;52.224;7.484;2023-05-07T02:34:08;27.13;;;24.40;;
29776;SDS011;16677;52.224;7.484;2023-05-07T02:36:35;26.00;;;23.33;;
29776;SDS011;16677;52.224;7.484;2023-05-07T02:39:02;27.87;;;25.07;;
29776;SDS011;16677;52.224;7.484;2023-05-07T02:41:30;25.57;;;22.77;;
29776;SDS011;16677;52.224;7.484;2023-05-07T02:43:57;26.20;;;23.43;;
29776;SDS011;16677;52.224;7.484;2023-05-07T02:46:24;26.60;;;23.97;;
29776;SDS011;16677;52.224;7.484;2023-05-07T06:27:12;25.03;;;22.73;;
29776;SDS011;16677;52.224;7.484;2023-05-07T06:29:40;24.73;;;22.42;;
29776;SDS011;16677;52.224;7.484;2023-05-07T06:32:10;23.60;;;21.40;;
29776;SDS011;16677;52.224;7.484;2023-05-07T06:34:39;23.65;;;21.45;;
29776;SDS011;16677;52.224;7.484;2023-05-07T06:37:06;22.30;;;20.30;;
29776;SDS011;16677;52.224;7.484;2023-05-07T06:39:34;21.40;;;19.50;;
29776;SDS011;16677;52.224;7.484;2023-05-07T06:42:01;22.55;;;20.55;;
29776;SDS011;16677;52.224;7.484;2023-05-07T06:44:28;22.17;;;20.17;;
29776;SDS011;16677;52.224;7.484;2023-05-07T06:46:56;21.88;;;19.98;;
29776;SDS011;16677;52.224;7.484;2023-05-07T06:49:23;23.55;;;21.35;;
29776;SDS011;16677;52.224;7.484;2023-05-07T06:51:50;22.40;;;20.42;;
29776;SDS011;16677;52.224;7.484;2023-05-07T06:54:17;21.92;;;19.92;;
29776;SDS011;16677;52.224;7.484;2023-05-07T06:56:44;29.00;;;26.30;;
29776;SDS011;16677;52.224;7.484;2023-05-07T06:59:11;42.10;;;38.17;;
29776;SDS011;16677;52.224;7.484;2023-05-07T07:01:39;22.10;;;20.17;;
29776;SDS011;16677;52.224;7.484;2023-05-07T07:04:06;22.02;;;20.02;;
29776;SDS011;16677;52.224;7.484;2023-05-07T07:06:33;22.30;;;20.20;;
29776;SDS011;16677;52.224;7.484;2023-05-07T07:09:01;22.35;;;20.33;;
29776;SDS011;16677;52.224;7.484;2023-05-07T07:11:28;21.90;;;19.80;;
29776;SDS011;16677;52.224;7.484;2023-05-07T07:13:55;23.90;;;21.80;;
29776;SDS011;16677;52.224;7.484;2023-05-07T07:16:22;23.30;;;21.20;;
29776;SDS011;16677;52.224;7.484;2023-05-07T07:18:49;22.05;;;20.15;;
29776;SDS011;16677;52.224;7.484;2023-05-07T07:21:17;23.10;;;21.00;;
29776;SDS011;16677;52.224;7.484;2023-05-07T07:23:44;22.50;;;20.42;;
29776;SDS011;16677;52.224;7.484;2023-05-07T07:26:11;22.88;;;20.77;;
29776;SDS011;16677;52.224;7.484;2023-05-07T07:28:42;22.55;;;20.55;;
29776;SDS011;16677;52.224;7.484;2023-05-07T07:31:12;22.90;;;20.80;;
29776;SDS011;16677;52.224;7.484;2023-05-07T07:33:39;21.77;;;19.40;;
29776;SDS011;16677;52.224;7.484;2023-05-07T08:03:09;18.80;;;16.93;;
29776;SDS011;16677;52.224;7.484;2023-05-07T08:08:04;20.50;;;18.60;;
29776;SDS011;16677;52.224;7.484;2023-05-07T08:10:32;21.08;;;19.02;;
29776;SDS011;16677;52.224;7.484;2023-05-07T08:13:01;20.90;;;18.98;;
29776;SDS011;16677;52.224;7.484;2023-05-07T08:15:30;20.93;;;19.10;;
29776;SDS011;16677;52.224;7.484;2023-05-07T08:17:57;21.42;;;19.52;;
29776;SDS011;16677;52.224;7.484;2023-05-07T08:20:26;21.67;;;19.58;;
29776;SDS011;16677;52.224;7.484;2023-05-07T08:22:55;22.23;;;20.17;;
29776;SDS011;16677;52.224;7.484;2023-05-07T08:25:22;20.42;;;18.58;;
29776;SDS011;16677;52.224;7.484;2023-05-07T08:27:49;21.73;;;19.65;;
29776;SDS011;16677;52.224;7.484;2023-05-07T08:30:16;20.10;;;18.25;;
29776;SDS011;16677;52.224;7.484;2023-05-07T08:32:43;20.00;;;18.20;;
29776;SDS011;16677;52.224;7.484;2023-05-07T08:35:10;19.50;;;17.33;;
29776;SDS011;16677;52.224;7.484;2023-05-07T08:37:37;18.50;;;16.57;;
29776;SDS011;16677;52.224;7.484;2023-05-07T08:40:05;19.17;;;17.27;;
29776;SDS011;16677;52.224;7.484;2023-05-07T08:42:37;16.97;;;15.30;;
29776;SDS011;16677;52.224;7.484;2023-05-07T08:45:09;19.40;;;17.43;;
29776;SDS011;16677;52.224;7.484;2023-05-07T08:47:40;18.90;;;17.10;;
29776;SDS011;16677;52.224;7.484;2023-05-07T08:50:17;18.37;;;16.57;;
29776;SDS011;16677;52.224;7.484;2023-05-07T08:52:44;18.73;;;16.77;;
29776;SDS011;16677;52.224;7.484;2023-05-07T08:55:11;20.43;;;18.33;;
29776;SDS011;16677;52.224;7.484;2023-05-07T08:57:39;18.37;;;16.63;;
29776;SDS011;16677;52.224;7.484;2023-05-07T09:00:07;19.17;;;17.10;;
29776;SDS011;16677;52.224;7.484;2023-05-07T09:02:36;18.63;;;16.87;;
29776;SDS011;16677;52.224;7.484;2023-05-07T09:05:03;18.23;;;16.30;;
29776;SDS011;16677;52.224;7.484;2023-05-07T09:07:31;17.80;;;16.00;;
29776;SDS011;16677;52.224;7.484;2023-05-07T09:09:58;19.13;;;17.27;;
29776;SDS011;16677;52.224;7.484;2023-05-07T10:16:46;16.50;;;14.90;;
29776;SDS011;16677;52.224;7.484;2023-05-07T10:19:15;15.75;;;14.15;;
29776;SDS011;16677;52.224;7.484;2023-05-07T10:35:00;17.27;;;15.40;;
29776;SDS011;16677;52.224;7.484;2023-05-07T10:37:32;18.13;;;16.43;;
29776;SDS011;16677;52.224;7.484;2023-05-07T10:40:00;18.33;;;16.53;;
29776;SDS011;16677;52.224;7.484;2023-05-07T10:42:27;17.05;;;15.43;;
29776;SDS011;16677;52.224;7.484;2023-05-07T10:44:54;16.27;;;14.77;;
29776;SDS011;16677;52.224;7.484;2023-05-07T10:47:21;16.83;;;15.25;;
29776;SDS011;16677;52.224;7.484;2023-05-07T10:52:19;17.45;;;15.80;;
29776;SDS011;16677;52.224;7.484;2023-05-07T10:55:26;16.13;;;14.73;;
29776;SDS011;16677;52.224;7.484;2023-05-07T10:57:52;17.15;;;15.60;;
29776;SDS011;16677;52.224;7.484;2023-05-07T11:00:40;18.40;;;16.70;;
29776;SDS011;16677;52.224;7.484;2023-05-07T11:03:06;17.03;;;15.43;;
29776;SDS011;16677;52.224;7.484;2023-05-07T11:05:34;17.27;;;15.57;;
29776;SDS011;16677;52.224;7.484;2023-05-07T11:08:04;16.70;;;15.15;;
29776;SDS011;16677;52.224;7.484;2023-05-07T11:16:25;16.63;;;15.20;;
29776;SDS011;16677;52.224;7.484;2023-05-07T11:18:56;16.20;;;14.70;;
29776;SDS011;16677;52.224;7.484;2023-05-07T11:49:16;13.35;;;10.88;;
29776;SDS011;16677;52.224;7.484;2023-05-07T11:51:43;12.75;;;11.65;;
29776;SDS011;16677;52.224;7.484;2023-05-07T11:54:14;11.65;;;10.65;;
29776;SDS011;16677;52.224;7.484;2023-05-07T11:56:43;11.90;;;10.90;;
29776;SDS011;16677;52.224;7.484;2023-05-07T11:59:11;12.45;;;11.35;;
29776;SDS011;16677;52.224;7.484;2023-05-07T12:01:38;12.52;;;11.45;;
29776;SDS011;16677;52.224;7.484;2023-05-07T12:04:05;12.90;;;11.73;;
29776;SDS011;16677;52.224;7.484;2023-05-07T12:06:35;11.97;;;10.83;;
29776;SDS011;16677;52.224;7.484;2023-05-07T12:09:04;12.05;;;10.95;;
29776;SDS011;16677;52.224;7.484;2023-05-07T12:11:33;11.32;;;10.32;;
29776;SDS011;16677;52.224;7.484;2023-05-07T12:14:00;10.88;;;9.88;;
29776;SDS011;16677;52.224;7.484;2023-05-07T12:16:27;10.45;;;9.45;;
29776;SDS011;16677;52.224;7.484;2023-05-07T12:18:55;10.43;;;9.53;;
29776;SDS011;16677;52.224;7.484;2023-05-07T12:21:25;10.32;;;9.52;;
29776;SDS011;16677;52.224;7.484;2023-05-07T12:23:52;9.60;;;8.77;;
29776;SDS011;16677;52.224;7.484;2023-05-07T12:26:19;9.70;;;8.90;;
29776;SDS011;16677;52.224;7.484;2023-05-07T12:28:47;9.87;;;9.03;;
29776;SDS011;16677;52.224;7.484;2023-05-07T12:31:14;10.20;;;9.20;;
29776;SDS011;16677;52.224;7.484;2023-05-07T12:33:42;10.43;;;9.52;;
29776;SDS011;16677;52.224;7.484;2023-05-07T12:36:11;9.85;;;8.95;;
29776;SDS011;16677;52.224;7.484;2023-05-07T12:38:39;9.95;;;9.15;;
29776;SDS011;16677;52.224;7.484;2023-05-07T12:41:08;9.52;;;8.52;;
29776;SDS011;16677;52.224;7.484;2023-05-07T12:43:37;9.50;;;8.70;;
29776;SDS011;16677;52.224;7.484;2023-05-07T12:46:05;8.50;;;7.80;;
29776;SDS011;16677;52.224;7.484;2023-05-07T12:48:38;8.63;;;6.82;;
29776;SDS011;16677;52.224;7.484;2023-05-07T12:51:09;9.35;;;8.55;;
29776;SDS011;16677;52.224;7.484;2023-05-07T12:53:41;8.60;;;7.80;;
29776;SDS011;16677;52.224;7.484;2023-05-07T12:56:09;8.60;;;7.80;;
29776;SDS011;16677;52.224;7.484;2023-05-07T12:58:36;7.80;;;7.10;;
29776;SDS011;16677;52.224;7.484;2023-05-07T13:01:07;8.20;;;7.47;;
29776;SDS011;16677;52.224;7.484;2023-05-07T13:03:36;9.10;;;8.20;;
29776;SDS011;16677;52.224;7.484;2023-05-07T13:06:05;9.18;;;8.18;;
29776;SDS011;16677;52.224;7.484;2023-05-07T13:11:09;9.32;;;8.32;;
29776;SDS011;16677;52.224;7.484;2023-05-07T13:13:38;8.07;;;7.45;;
29776;SDS011;16677;52.224;7.484;2023-05-07T13:16:08;7.63;;;6.93;;
29776;SDS011;16677;52.224;7.484;2023-05-07T13:18:38;8.80;;;6.97;;
29776;SDS011;16677;52.224;7.484;2023-05-07T13:21:07;7.90;;;7.20;;
29776;SDS011;16677;52.224;7.484;2023-05-07T13:23:34;7.68;;;6.97;;
29776;SDS011;16677;52.224;7.484;2023-05-07T13:26:01;10.23;;;6.95;;
29776;SDS011;16677;52.224;7.484;2023-05-07T13:28:33;7.47;;;6.72;;
29776;SDS011;16677;52.224;7.484;2023-05-07T13:31:01;9.10;;;7.85;;
29776;SDS011;16677;52.224;7.484;2023-05-07T13:33:29;8.63;;;7.72;;
29776;SDS011;16677;52.224;7.484;2023-05-07T13:35:56;8.85;;;7.25;;
29776;SDS011;16677;52.224;7.484;2023-05-07T13:38:23;7.93;;;7.13;;
29776;SDS011;16677;52.224;7.484;2023-05-07T13:40:50;8.13;;;7.30;;
29776;SDS011;16677;52.224;7.484;2023-05-07T13:43:17;7.65;;;6.95;;
29776;SDS011;16677;52.224;7.484;2023-05-07T13:45:45;8.23;;;7.40;;
29776;SDS011;16677;52.224;7.484;2023-05-07T13:48:12;8.43;;;7.57;;
29776;SDS011;16677;52.224;7.484;2023-05-07T13:50:39;7.97;;;7.28;;
29776;SDS011;16677;52.224;7.484;2023-05-07T13:53:07;7.55;;;6.95;;
29776;SDS011;16677;52.224;7.484;2023-05-07T13:55:34;7.45;;;6.78;;
29776;SDS011;16677;52.224;7.484;2023-05-07T13:58:02;8.50;;;6.80;;
29776;SDS011;16677;52.224;7.484;2023-05-07T14:00:32;8.45;;;7.65;;
29776;SDS011;16677;52.224;7.484;2023-05-07T14:02:59;7.70;;;7.00;;
29776;SDS011;16677;52.224;7.484;2023-05-07T14:05:27;7.72;;;6.78;;
29776;SDS011;16677;52.224;7.484;2023-05-07T14:07:54;7.60;;;6.47;;
29776;SDS011;16677;52.224;7.484;2023-05-07T14:10:24;8.00;;;6.97;;
29776;SDS011;16677;52.224;7.484;2023-05-07T14:12:51;7.28;;;6.68;;
29776;SDS011;16677;52.224;7.484;2023-05-07T14:15:19;7.05;;;6.45;;
29776;SDS011;16677;52.224;7.484;2023-05-07T14:17:46;6.68;;;5.95;;
29776;SDS011;16677;52.224;7.484;2023-05-07T14:20:13;8.65;;;6.95;;
29776;SDS011;16677;52.224;7.484;2023-05-07T14:22:40;7.15;;;5.97;;
29776;SDS011;16677;52.224;7.484;2023-05-07T14:25:07;8.10;;;7.30;;
29776;SDS011;16677;52.224;7.484;2023-05-07T14:27:39;8.50;;;6.35;;
29776;SDS011;16677;52.224;7.484;2023-05-07T14:30:06;7.80;;;7.10;;
29776;SDS011;16677;52.224;7.484;2023-05-07T14:32:34;7.10;;;6.45;;
29776;SDS011;16677;52.224;7.484;2023-05-07T14:35:02;7.93;;;7.13;;
29776;SDS011;16677;52.224;7.484;2023-05-07T14:37:29;7.57;;;6.88;;
29776;SDS011;16677;52.224;7.484;2023-05-07T14:39:56;7.97;;;7.18;;
29776;SDS011;16677;52.224;7.484;2023-05-07T14:42:23;6.95;;;6.35;;
29776;SDS011;16677;52.224;7.484;2023-05-07T14:44:51;6.57;;;5.97;;
29776;SDS011;16677;52.224;7.484;2023-05-07T14:47:19;6.75;;;6.13;;
29776;SDS011;16677;52.224;7.484;2023-05-07T14:49:46;7.05;;;6.45;;
29776;SDS011;16677;52.224;7.484;2023-05-07T14:52:13;7.40;;;6.70;;
29776;SDS011;16677;52.224;7.484;2023-05-07T14:54:40;6.78;;;6.18;;
29776;SDS011;16677;52.224;7.484;2023-05-07T14:57:08;6.88;;;6.28;;
29776;SDS011;16677;52.224;7.484;2023-05-07T14:59:37;6.90;;;6.20;;
29776;SDS011;16677;52.224;7.484;2023-05-07T15:02:05;8.23;;;6.20;;
29776;SDS011;16677;52.224;7.484;2023-05-07T15:04:34;6.70;;;6.10;;
29776;SDS011;16677;52.224;7.484;2023-05-07T15:07:01;6.63;;;6.03;;
29776;SDS011;16677;52.224;7.484;2023-05-07T15:09:28;7.00;;;5.47;;
29776;SDS011;16677;52.224;7.484;2023-05-07T15:11:56;6.80;;;6.20;;
29776;SDS011;16677;52.224;7.484;2023-05-07T15:14:23;6.53;;;5.85;;
29776;SDS011;16677;52.224;7.484;2023-05-07T15:16:50;6.32;;;5.82;;
29776;SDS011;16677;52.224;7.484;2023-05-07T15:19:17;6.22;;;5.65;;
29776;SDS011;16677;52.224;7.484;2023-05-07T15:21:44;6.10;;;5.50;;
29776;SDS011;16677;52.224;7.484;2023-05-07T15:24:11;6.00;;;5.50;;
29776;SDS011;16677;52.224;7.484;2023-05-07T15:26:38;5.80;;;5.30;;
29776;SDS011;16677;52.224;7.484;2023-05-07T15:29:05;8.35;;;6.05;;
29776;SDS011;16677;52.224;7.484;2023-05-07T15:31:36;5.88;;;5.32;;
29776;SDS011;16677;52.224;7.484;2023-05-07T15:34:05;6.20;;;5.65;;
29776;SDS011;16677;52.224;7.484;2023-05-07T15:36:32;7.10;;;5.10;;
29776;SDS011;16677;52.224;7.484;2023-05-07T15:38:59;5.85;;;5.35;;
29776;SDS011;16677;52.224;7.484;2023-05-07T15:41:28;6.57;;;5.78;;
29776;SDS011;16677;52.224;7.484;2023-05-07T15:43:56;6.40;;;5.80;;
29776;SDS011;16677;52.224;7.484;2023-05-07T15:46:24;7.13;;;5.65;;
29776;SDS011;16677;52.224;7.484;2023-05-07T15:48:52;6.03;;;5.53;;
29776;SDS011;16677;52.224;7.484;2023-05-07T15:51:20;5.43;;;5.03;;
29776;SDS011;16677;52.224;7.484;2023-05-07T15:53:47;5.65;;;5.15;;
29776;SDS011;16677;52.224;7.484;2023-05-07T15:56:15;5.03;;;4.60;;
29776;SDS011;16677;52.224;7.484;2023-05-07T15:58:42;6.35;;;5.47;;
29776;SDS011;16677;52.224;7.484;2023-05-07T16:01:09;11.23;;;10.13;;
29776;SDS011;16677;52.224;7.484;2023-05-07T16:03:36;6.25;;;5.65;;
29776;SDS011;16677;52.224;7.484;2023-05-07T16:06:04;7.03;;;6.35;;
29776;SDS011;16677;52.224;7.484;2023-05-07T16:08:31;6.95;;;6.25;;
29776;SDS011;16677;52.224;7.484;2023-05-07T16:10:59;5.78;;;5.28;;
29776;SDS011;16677;52.224;7.484;2023-05-07T16:13:26;6.90;;;6.25;;
29776;SDS011;16677;52.224;7.484;2023-05-07T16:15:56;8.15;;;5.72;;
29776;SDS011;16677;52.224;7.484;2023-05-07T16:18:24;6.13;;;5.50;;
29776;SDS011;16677;52.224;7.484;2023-05-07T16:20:51;5.80;;;5.30;;
29776;SDS011;16677;52.224;7.484;2023-05-07T16:23:19;6.68;;;5.85;;
29776;SDS011;16677;52.224;7.484;2023-05-07T16:25:48;6.32;;;5.72;;
29776;SDS011;16677;52.224;7.484;2023-05-07T16:28:15;6.10;;;5.50;;
29776;SDS011;16677;52.224;7.484;2023-05-07T16:30:42;6.10;;;5.55;;
29776;SDS011;16677;52.224;7.484;2023-05-07T16:33:09;6.90;;;6.30;;
29776;SDS011;16677;52.224;7.484;2023-05-07T16:35:36;6.30;;;5.73;;
29776;SDS011;16677;52.224;7.484;2023-05-07T16:38:03;6.50;;;5.90;;
29776;SDS011;16677;52.224;7.484;2023-05-07T16:40:38;6.23;;;5.63;;
29776;SDS011;16677;52.224;7.484;2023-05-07T16:43:06;6.63;;;5.93;;
29776;SDS011;16677;52.224;7.484;2023-05-07T16:45:33;6.23;;;5.63;;
29776;SDS011;16677;52.224;7.484;2023-05-07T16:48:00;6.30;;;5.70;;
29776;SDS011;16677;52.224;7.484;2023-05-07T16:50:28;6.33;;;5.53;;
29776;SDS011;16677;52.224;7.484;2023-05-07T16:52:55;8.73;;;6.13;;
29776;SDS011;16677;52.224;7.484;2023-05-07T16:55:22;6.43;;;5.83;;
29776;SDS011;16677;52.224;7.484;2023-05-07T16:57:50;6.40;;;5.80;;
29776;SDS011;16677;52.224;7.484;2023-05-07T17:00:17;6.30;;;5.70;;
29776;SDS011;16677;52.224;7.484;2023-05-07T17:02:44;6.00;;;5.50;;
29776;SDS011;16677;52.224;7.484;2023-05-07T17:05:12;6.47;;;5.93;;
29776;SDS011;16677;52.224;7.484;2023-05-07T17:07:40;6.57;;;5.80;;
29776;SDS011;16677;52.224;7.484;2023-05-07T17:10:07;7.43;;;6.50;;
29776;SDS011;16677;52.224;7.484;2023-05-07T17:12:35;6.40;;;5.80;;
29776;SDS011;16677;52.224;7.484;2023-05-07T17:15:03;6.03;;;5.53;;
29776;SDS011;16677;52.224;7.484;2023-05-07T17:17:30;6.38;;;5.72;;
29776;SDS011;16677;52.224;7.484;2023-05-07T17:19:58;7.27;;;6.57;;
29776;SDS011;16677;52.224;7.484;2023-05-07T17:22:25;7.23;;;6.53;;
29776;SDS011;16677;52.224;7.484;2023-05-07T17:24:53;7.75;;;7.15;;
29776;SDS011;16677;52.224;7.484;2023-05-07T17:27:20;7.40;;;6.80;;
29776;SDS011;16677;52.224;7.484;2023-05-07T17:29:47;7.90;;;7.30;;
29776;SDS011;16677;52.224;7.484;2023-05-07T17:32:14;7.82;;;7.22;;
29776;SDS011;16677;52.224;7.484;2023-05-07T17:34:42;7.97;;;7.28;;
29776;SDS011;16677;52.224;7.484;2023-05-07T17:37:09;7.57;;;6.88;;
29776;SDS011;16677;52.224;7.484;2023-05-07T17:39:36;8.10;;;7.40;;
29776;SDS011;16677;52.224;7.484;2023-05-07T17:42:03;7.90;;;7.20;;
29776;SDS011;16677;52.224;7.484;2023-05-07T17:44:30;8.25;;;7.55;;
29776;SDS011;16677;52.224;7.484;2023-05-07T17:46:59;8.02;;;7.32;;
29776;SDS011;16677;52.224;7.484;2023-05-07T17:49:26;8.05;;;7.40;;
29776;SDS011;16677;52.224;7.484;2023-05-07T17:51:53;7.93;;;7.32;;
29776;SDS011;16677;52.224;7.484;2023-05-07T17:54:21;7.80;;;7.20;;
29776;SDS011;16677;52.224;7.484;2023-05-07T17:56:51;7.13;;;6.55;;
29776;SDS011;16677;52.224;7.484;2023-05-07T17:59:18;8.85;;;7.72;;
29776;SDS011;16677;52.224;7.484;2023-05-07T18:16:29;8.70;;;7.90;;
29776;SDS011;16677;52.224;7.484;2023-05-07T18:18:56;8.87;;;8.07;;
29776;SDS011;16677;52.224;7.484;2023-05-07T18:21:23;8.45;;;7.75;;
29776;SDS011;16677;52.224;7.484;2023-05-07T18:23:52;8.40;;;7.75;;
29776;SDS011;16677;52.224;7.484;2023-05-07T18:26:19;9.05;;;8.32;;
29776;SDS011;16677;52.224;7.484;2023-05-07T18:28:46;8.20;;;7.50;;
29776;SDS011;16677;52.224;7.484;2023-05-07T18:31:13;8.80;;;8.00;;
29776;SDS011;16677;52.224;7.484;2023-05-07T18:33:41;8.07;;;7.27;;
29776;SDS011;16677;52.224;7.484;2023-05-07T19:10:36;11.13;;;10.13;;
29776;SDS011;16677;52.224;7.484;2023-05-07T19:13:03;11.27;;;10.30;;
29776;SDS011;16677;52.224;7.484;2023-05-07T19:15:31;11.25;;;10.25;;
29776;SDS011;16677;52.224;7.484;2023-05-07T19:17:58;12.13;;;11.13;;
29776;SDS011;16677;52.224;7.484;2023-05-07T19:20:26;11.60;;;10.70;;
29776;SDS011;16677;52.224;7.484;2023-05-07T19:22:54;11.50;;;10.57;;
29776;SDS011;16677;52.224;7.484;2023-05-07T19:25:21;11.93;;;10.93;;
29776;SDS011;16677;52.224;7.484;2023-05-07T19:27:49;12.23;;;11.23;;
